Lakeview, Ohio
Current Conditions -  °F | °C
As of 2:50 PM on Sunday 21 Dec 2014 (Local Time) from KEDJ Reporting Station
Clear Clear  
Wind Chill: 30°   Ceiling: Unl
Heat Index: 36°   Visibility: 9mi
Dew Point: 25°   Wind: 7mph
Humidity: 65%   Direction: 150°SSE
Pressure: 30.2"   Gusts: NA
Location:  40.48°N, 83.92°W
Report Text: KEDJ 211950Z AUTO 15006KT 9SM CLR 02/M04 A3020 RMK AO1
Loading
Personal Weather Stations






























Interactive Weather Map New forecast layout! Learn more

10-Day Weather Forecast

Advertisements
Track Severe Weather on mobile